createdAt,value
2023-01-25T00:01:02.951Z,12.70
2023-01-25T00:04:00.624Z,12.40
2023-01-25T00:06:58.035Z,14.00
2023-01-25T00:09:55.641Z,13.10
2023-01-25T00:12:53.071Z,12.90
2023-01-25T00:15:50.798Z,14.80
2023-01-25T00:18:48.553Z,13.00
2023-01-25T00:21:45.999Z,12.40
2023-01-25T00:24:44.291Z,14.70
2023-01-25T00:27:41.711Z,12.10
2023-01-25T00:30:39.425Z,15.20
2023-01-25T00:33:36.862Z,12.30
2023-01-25T00:36:34.915Z,15.00
2023-01-25T00:39:32.381Z,12.40
2023-01-25T00:42:30.086Z,13.40
2023-01-25T00:45:27.787Z,12.80
2023-01-25T00:48:25.220Z,17.70
2023-01-25T00:51:22.959Z,15.60
2023-01-25T00:54:20.378Z,14.00
2023-01-25T00:57:18.090Z,13.70
2023-01-25T01:00:15.564Z,11.90
2023-01-25T01:03:13.209Z,13.80
2023-01-25T01:06:10.651Z,14.70
2023-01-25T01:09:08.538Z,14.60
2023-01-25T01:12:06.309Z,16.50
2023-01-25T01:15:05.709Z,15.00
2023-01-25T01:18:03.709Z,14.90
2023-01-25T01:21:01.151Z,14.30
2023-01-25T01:23:58.912Z,15.40
2023-01-25T01:26:56.749Z,15.80
2023-01-25T01:29:54.169Z,14.80
2023-01-25T01:32:51.999Z,13.90
2023-01-25T01:35:49.563Z,14.50
2023-01-25T01:38:47.442Z,13.30
2023-01-25T01:41:44.871Z,16.50
2023-01-25T01:44:42.557Z,12.20
2023-01-25T01:47:40.231Z,14.80
2023-01-25T01:50:37.667Z,16.40
2023-01-25T01:53:35.473Z,14.90
2023-01-25T01:56:32.942Z,15.40
2023-01-25T01:59:30.685Z,17.30
2023-01-25T02:02:28.175Z,19.90
2023-01-25T02:05:25.933Z,15.90
2023-01-25T02:08:23.842Z,15.90
2023-01-25T02:11:21.311Z,16.00
2023-01-25T02:14:18.986Z,15.20
2023-01-25T02:17:16.399Z,15.40
2023-01-25T02:20:14.005Z,16.60
2023-01-25T02:23:11.797Z,15.10
2023-01-25T02:26:09.244Z,17.20
2023-01-25T02:29:06.905Z,15.20
2023-01-25T02:32:04.364Z,16.00
2023-01-25T02:35:02.068Z,14.40
2023-01-25T02:37:59.521Z,14.70
2023-01-25T02:40:57.298Z,16.30
2023-01-25T02:43:54.951Z,16.70
2023-01-25T02:46:52.424Z,20.50
2023-01-25T02:49:50.173Z,18.30
2023-01-25T02:52:47.617Z,19.90
2023-01-25T02:55:45.691Z,17.80
2023-01-25T02:58:43.147Z,20.50
2023-01-25T03:01:40.879Z,20.90
2023-01-25T03:04:38.596Z,18.70
2023-01-25T03:07:36.048Z,20.30
2023-01-25T03:10:33.717Z,16.60
2023-01-25T03:13:31.157Z,18.50
2023-01-25T03:16:28.986Z,20.30
2023-01-25T03:19:26.409Z,19.90
2023-01-25T03:22:24.379Z,18.40
2023-01-25T03:25:21.819Z,17.30
2023-01-25T03:28:19.511Z,22.20
2023-01-25T03:31:17.421Z,19.60
2023-01-25T03:34:14.923Z,16.90
2023-01-25T03:37:12.547Z,22.00
2023-01-25T03:40:10.324Z,17.60
2023-01-25T03:43:08.025Z,18.90
2023-01-25T03:46:05.475Z,20.40
2023-01-25T03:49:03.102Z,17.40
2023-01-25T03:52:00.819Z,19.10
2023-01-25T03:54:58.239Z,19.60
2023-01-25T03:57:55.944Z,16.70
2023-01-25T04:00:53.463Z,17.30
2023-01-25T04:03:51.160Z,17.60
2023-01-25T04:06:48.593Z,13.90
2023-01-25T04:09:46.297Z,17.10
2023-01-25T04:12:43.719Z,16.10
2023-01-25T04:15:41.424Z,15.80
2023-01-25T04:18:39.043Z,20.00
2023-01-25T04:21:36.451Z,16.70
2023-01-25T04:24:34.128Z,17.40
2023-01-25T04:27:31.572Z,15.10
2023-01-25T04:30:29.327Z,20.50
2023-01-25T04:33:26.774Z,16.50
2023-01-25T04:36:24.394Z,17.80
2023-01-25T04:39:21.838Z,19.60
2023-01-25T04:42:19.594Z,19.50
2023-01-25T04:45:17.059Z,19.50
2023-01-25T04:48:14.799Z,18.30
2023-01-25T04:51:12.575Z,20.70
2023-01-25T04:54:10.021Z,19.90
2023-01-25T04:57:07.814Z,18.70
2023-01-25T05:00:05.479Z,20.60
2023-01-25T05:03:03.140Z,18.40
2023-01-25T05:06:00.578Z,18.30
2023-01-25T05:08:58.265Z,17.20
2023-01-25T05:11:55.689Z,17.20
2023-01-25T05:14:53.484Z,19.00
2023-01-25T05:17:51.279Z,20.10
2023-01-25T05:20:48.698Z,21.00
2023-01-25T05:23:46.410Z,18.60
2023-01-25T05:27:04.018Z,21.30
2023-01-25T05:30:01.897Z,18.70
2023-01-25T05:32:59.550Z,17.90
2023-01-25T05:35:58.976Z,21.00
2023-01-25T05:38:56.708Z,23.90
2023-01-25T05:41:54.153Z,25.40
2023-01-25T05:44:52.053Z,19.80
2023-01-25T05:47:49.506Z,21.20
2023-01-25T05:50:47.277Z,21.90
2023-01-25T05:53:45.123Z,21.20
2023-01-25T05:56:42.587Z,22.70
2023-01-25T05:59:40.279Z,22.60
2023-01-25T06:02:38.232Z,22.10
2023-01-25T06:05:36.098Z,21.90
2023-01-25T06:08:33.768Z,21.80
2023-01-25T06:11:31.224Z,23.90
2023-01-25T06:14:29.029Z,23.00
2023-01-25T06:17:26.475Z,22.30
2023-01-25T06:20:24.224Z,21.60
2023-01-25T06:23:21.629Z,24.40
2023-01-25T06:26:19.367Z,24.50
2023-01-25T06:29:17.113Z,21.80
2023-01-25T06:32:14.569Z,19.00
2023-01-25T06:35:12.347Z,22.20
2023-01-25T06:38:09.772Z,21.10
2023-01-25T06:41:07.375Z,20.40
2023-01-25T06:44:04.973Z,19.10
2023-01-25T06:47:02.421Z,20.90
2023-01-25T06:50:00.172Z,24.60
2023-01-25T06:52:57.592Z,21.10
2023-01-25T06:55:55.393Z,19.90
2023-01-25T06:58:52.821Z,19.80
2023-01-25T07:01:50.465Z,26.70
2023-01-25T07:04:48.507Z,26.00
2023-01-25T07:07:46.136Z,26.50
2023-01-25T07:10:43.844Z,21.60
2023-01-25T07:13:41.261Z,22.60
2023-01-25T07:16:39.045Z,19.50
2023-01-25T07:19:36.494Z,17.20
2023-01-25T07:22:34.269Z,17.80
2023-01-25T07:25:31.716Z,17.00
2023-01-25T07:28:29.382Z,17.90
2023-01-25T07:31:27.078Z,17.90
2023-01-25T07:34:24.571Z,18.60
2023-01-25T07:37:22.388Z,17.50
2023-01-25T07:40:19.939Z,19.90
2023-01-25T07:43:17.598Z,17.60
2023-01-25T07:46:15.818Z,20.60
2023-01-25T07:49:13.625Z,18.50
2023-01-25T07:52:11.322Z,18.20
2023-01-25T07:55:08.959Z,19.40
2023-01-25T07:58:06.952Z,20.70
2023-01-25T08:01:04.386Z,19.10
2023-01-25T08:04:01.966Z,17.10
2023-01-25T08:06:59.380Z,17.70
2023-01-25T08:09:57.102Z,21.00
2023-01-25T08:12:54.536Z,17.80
2023-01-25T08:15:52.244Z,21.50
2023-01-25T08:18:49.682Z,22.10
2023-01-25T08:21:47.494Z,20.40
2023-01-25T08:24:45.266Z,19.90
2023-01-25T08:27:42.760Z,20.80
2023-01-25T08:30:52.023Z,19.70
2023-01-25T08:33:53.775Z,20.90
2023-01-25T08:39:53.685Z,22.00
2023-01-25T08:42:52.107Z,21.00
2023-01-25T08:45:49.773Z,15.90
2023-01-25T08:48:47.203Z,18.40
2023-01-25T08:51:45.000Z,20.30
2023-01-25T08:54:44.101Z,21.00
2023-01-25T08:57:41.793Z,17.30
2023-01-25T09:00:39.240Z,20.00
2023-01-25T09:03:37.127Z,21.00
2023-01-25T09:06:34.618Z,16.90
2023-01-25T09:09:32.423Z,17.40
2023-01-25T09:12:30.284Z,14.70
2023-01-25T09:15:27.717Z,18.90
2023-01-25T09:18:25.344Z,21.00
2023-01-25T09:21:22.768Z,18.00
2023-01-25T09:24:20.573Z,17.90
2023-01-25T09:27:18.415Z,17.00
2023-01-25T09:30:18.696Z,15.30
2023-01-25T09:33:17.226Z,15.20
2023-01-25T09:36:15.566Z,16.90
2023-01-25T09:39:13.801Z,16.20
2023-01-25T09:42:15.014Z,19.30
2023-01-25T09:45:22.274Z,19.30
2023-01-25T09:48:20.128Z,16.30
2023-01-25T09:51:17.757Z,17.60
2023-01-25T09:54:16.906Z,18.00
2023-01-25T09:57:15.004Z,18.80
2023-01-25T10:00:13.063Z,16.40
2023-01-25T10:03:10.994Z,19.80
2023-01-25T10:06:08.454Z,17.60
2023-01-25T10:09:06.193Z,17.70
2023-01-25T10:12:03.627Z,22.20
2023-01-25T10:15:01.416Z,17.20
2023-01-25T10:17:59.454Z,18.40
2023-01-25T10:20:57.275Z,17.90
2023-01-25T10:23:54.980Z,14.10
2023-01-25T10:26:52.416Z,16.30
2023-01-25T10:29:50.118Z,16.50
2023-01-25T10:32:55.374Z,19.00
2023-01-25T10:35:53.555Z,16.60
2023-01-25T10:38:55.948Z,16.10
2023-01-25T10:41:53.401Z,13.70
2023-01-25T10:44:51.011Z,17.60
2023-01-25T10:47:48.523Z,17.60
2023-01-25T10:50:46.768Z,15.60
2023-01-25T10:53:44.529Z,19.10
2023-01-25T10:56:42.353Z,16.50
2023-01-25T10:59:39.969Z,13.60
2023-01-25T11:02:37.444Z,15.50
2023-01-25T11:05:35.244Z,16.00
2023-01-25T11:08:32.706Z,13.50
2023-01-25T11:11:30.457Z,13.10
2023-01-25T11:14:27.959Z,16.10
2023-01-25T11:17:26.169Z,14.10
2023-01-25T11:20:23.937Z,12.40
2023-01-25T11:23:21.412Z,14.60
2023-01-25T11:26:19.060Z,10.30
2023-01-25T11:29:16.770Z,12.10
2023-01-25T11:32:14.542Z,12.50
2023-01-25T11:35:13.603Z,11.10
2023-01-25T11:38:11.503Z,12.80
2023-01-25T11:41:08.950Z,11.20
2023-01-25T11:44:06.812Z,12.80
2023-01-25T11:47:04.576Z,11.60
2023-01-25T11:50:02.008Z,11.90
2023-01-25T11:52:59.820Z,12.30
2023-01-25T11:55:57.239Z,12.60
2023-01-25T11:58:55.459Z,12.40
2023-01-25T12:01:52.918Z,12.10
2023-01-25T12:04:50.676Z,11.60
2023-01-25T12:07:48.450Z,13.40
2023-01-25T12:10:45.892Z,13.70
2023-01-25T12:13:43.665Z,12.50
2023-01-25T12:16:42.094Z,12.30
2023-01-25T12:19:39.923Z,14.70
2023-01-25T12:22:37.349Z,13.40
2023-01-25T12:25:35.152Z,16.30
2023-01-25T12:28:32.601Z,11.30
2023-01-25T12:31:30.353Z,11.10
2023-01-25T12:34:27.792Z,12.40
2023-01-25T12:37:25.501Z,12.90
2023-01-25T12:40:23.232Z,11.90
2023-01-25T12:43:20.648Z,11.40
2023-01-25T12:46:18.339Z,10.20
2023-01-25T12:49:15.775Z,11.60
2023-01-25T12:52:13.625Z,10.60
2023-01-25T12:55:11.278Z,11.70
2023-01-25T12:58:08.722Z,11.30
2023-01-25T13:01:06.544Z,14.30
2023-01-25T13:04:04.000Z,13.60
2023-01-25T13:07:01.735Z,13.20
2023-01-25T13:09:59.192Z,13.40
2023-01-25T13:12:56.962Z,15.10
2023-01-25T13:15:54.968Z,12.90
2023-01-25T13:18:52.477Z,12.80
2023-01-25T13:21:50.265Z,13.40
2023-01-25T13:24:47.702Z,11.90
2023-01-25T13:27:45.338Z,11.70
2023-01-25T13:30:42.786Z,11.80
2023-01-25T13:33:40.609Z,12.80
2023-01-25T13:36:38.275Z,11.70
2023-01-25T13:39:35.703Z,11.90
2023-01-25T13:42:33.402Z,14.00
2023-01-25T13:45:30.897Z,13.50
2023-01-25T13:48:29.134Z,13.10
2023-01-25T13:51:26.563Z,15.00
2023-01-25T13:54:24.302Z,16.70
2023-01-25T13:57:22.255Z,17.20
2023-01-25T14:00:19.738Z,18.60
2023-01-25T14:03:17.428Z,13.60
2023-01-25T14:06:14.899Z,19.90
2023-01-25T14:09:16.266Z,17.50
2023-01-25T14:12:14.783Z,17.10
2023-01-25T14:15:12.506Z,18.10
2023-01-25T14:18:10.405Z,14.30
2023-01-25T14:21:08.362Z,13.30
2023-01-25T14:24:06.317Z,13.20
2023-01-25T14:27:03.749Z,16.70
2023-01-25T14:30:01.427Z,19.60
2023-01-25T14:32:58.852Z,16.70
2023-01-25T14:36:01.708Z,18.80
2023-01-25T14:39:05.030Z,17.20
2023-01-25T14:42:02.619Z,17.70
2023-01-25T14:45:00.405Z,14.90
2023-01-25T14:47:59.684Z,13.70
2023-01-25T14:50:57.401Z,16.00
2023-01-25T14:53:55.018Z,16.70
2023-01-25T14:56:52.470Z,15.10
2023-01-25T14:59:50.200Z,15.60
2023-01-25T15:02:48.093Z,13.90
2023-01-25T15:05:45.939Z,15.00
2023-01-25T15:08:43.378Z,16.10
2023-01-25T15:11:49.369Z,15.50
2023-01-25T15:14:46.845Z,16.90
2023-01-25T15:17:44.590Z,15.00
2023-01-25T15:20:42.360Z,17.30
2023-01-25T15:23:39.829Z,17.20
2023-01-25T15:26:37.541Z,16.70
2023-01-25T15:29:34.962Z,16.40
2023-01-25T15:32:32.700Z,14.40
2023-01-25T15:35:30.166Z,14.30
2023-01-25T15:38:27.943Z,12.80
2023-01-25T15:41:25.698Z,12.70
2023-01-25T15:44:23.410Z,16.40
2023-01-25T15:47:21.538Z,15.60
2023-01-25T15:50:19.051Z,16.30
2023-01-25T15:53:17.148Z,14.30
2023-01-25T15:56:14.632Z,15.90
2023-01-25T15:59:12.238Z,14.80
2023-01-25T16:02:09.750Z,15.20
2023-01-25T16:05:07.525Z,16.40
2023-01-25T16:08:05.309Z,16.20
2023-01-25T16:11:03.495Z,16.90
2023-01-25T16:14:01.249Z,16.90
2023-01-25T16:16:59.298Z,16.60
2023-01-25T16:19:57.434Z,21.00
2023-01-25T16:22:54.906Z,20.10
2023-01-25T16:25:52.513Z,20.50
2023-01-25T16:28:50.418Z,19.40
2023-01-25T16:31:48.760Z,16.60
2023-01-25T16:34:46.354Z,16.60
2023-01-25T16:37:45.669Z,16.30
2023-01-25T16:40:43.847Z,19.70
2023-01-25T16:43:43.151Z,15.30
2023-01-25T16:46:41.447Z,14.30
2023-01-25T16:49:39.329Z,16.40
2023-01-25T16:52:37.249Z,15.10
2023-01-25T16:55:36.723Z,17.20
2023-01-25T16:58:34.814Z,16.40
2023-01-25T17:01:34.597Z,15.30
2023-01-25T17:04:32.418Z,15.50
2023-01-25T17:07:31.385Z,13.80
2023-01-25T17:10:33.665Z,14.50
2023-01-25T17:13:32.002Z,15.80
2023-01-25T17:16:30.629Z,11.80
2023-01-25T17:19:29.453Z,17.70
2023-01-25T17:22:30.313Z,13.00
2023-01-25T17:25:32.658Z,14.30
2023-01-25T17:28:31.644Z,14.60
2023-01-25T17:31:31.007Z,15.20
2023-01-25T17:34:29.420Z,13.70
2023-01-25T17:37:29.211Z,16.10
2023-01-25T17:40:27.797Z,15.70
2023-01-25T17:43:28.403Z,15.00
2023-01-25T17:46:28.471Z,13.60
2023-01-25T17:49:27.405Z,13.90
2023-01-25T17:52:25.909Z,15.80
2023-01-25T17:55:25.382Z,17.70
2023-01-25T17:58:24.599Z,15.70
2023-01-25T18:01:33.085Z,18.10
2023-01-25T18:04:33.211Z,21.20
2023-01-25T18:07:32.001Z,23.20
2023-01-25T18:10:30.315Z,18.40
2023-01-25T18:13:29.044Z,14.30
2023-01-25T18:16:30.266Z,13.50
2023-01-25T18:19:32.997Z,13.90
2023-01-25T18:22:31.875Z,13.60
2023-01-25T18:25:30.858Z,17.30
2023-01-25T18:28:29.091Z,14.40
2023-01-25T18:31:28.902Z,17.30
2023-01-25T18:34:28.627Z,15.30
2023-01-25T18:37:43.468Z,18.20
2023-01-25T18:40:44.645Z,18.40
2023-01-25T18:43:43.705Z,20.20
2023-01-25T18:46:44.179Z,19.30
2023-01-25T18:49:42.473Z,17.70
2023-01-25T18:52:41.608Z,17.00
2023-01-25T18:55:42.940Z,17.90
2023-01-25T18:58:42.676Z,17.80
2023-01-25T19:01:41.815Z,14.70
2023-01-25T19:04:44.257Z,15.70
2023-01-25T19:07:43.450Z,15.10
2023-01-25T19:10:42.343Z,19.60
2023-01-25T19:13:46.732Z,27.10
2023-01-25T19:16:46.784Z,21.30
2023-01-25T19:19:45.888Z,24.90
2023-01-25T19:22:45.386Z,21.00
2023-01-25T19:25:46.847Z,16.70
2023-01-25T19:28:46.151Z,13.60
2023-01-25T19:31:45.067Z,17.80
2023-01-25T19:34:44.859Z,15.80
2023-01-25T19:37:45.779Z,19.20
2023-01-25T19:40:47.368Z,17.40
2023-01-25T19:43:46.871Z,16.70
2023-01-25T19:46:46.985Z,16.20
2023-01-25T19:49:47.213Z,21.80
2023-01-25T19:52:46.719Z,16.50
2023-01-25T19:55:45.711Z,17.80
2023-01-25T19:58:46.717Z,14.80
2023-01-25T20:01:47.011Z,14.40
2023-01-25T20:04:45.559Z,16.20
2023-01-25T20:07:46.628Z,15.30
2023-01-25T20:10:45.819Z,18.00
2023-01-25T20:13:43.794Z,16.80
2023-01-25T20:16:41.949Z,17.90
2023-01-25T20:19:42.156Z,19.20
2023-01-25T20:22:39.867Z,22.20
2023-01-25T20:25:41.150Z,18.20
2023-01-25T20:28:40.095Z,19.40
2023-01-25T20:31:39.376Z,17.20
2023-01-25T20:34:38.502Z,19.60
2023-01-25T20:37:38.819Z,19.60
2023-01-25T20:40:40.329Z,25.90
2023-01-25T20:43:40.498Z,26.90
2023-01-25T20:46:40.532Z,25.80
2023-01-25T20:49:39.451Z,23.40
2023-01-25T20:52:38.924Z,21.90
2023-01-25T20:55:37.518Z,20.70
2023-01-25T20:58:36.405Z,31.50
2023-01-25T21:01:37.879Z,21.30
2023-01-25T21:04:37.674Z,24.40
2023-01-25T21:07:36.465Z,21.10
2023-01-25T21:10:35.870Z,21.40
2023-01-25T21:13:34.332Z,20.20
2023-01-25T21:16:40.049Z,20.90
2023-01-25T21:19:38.184Z,19.10
2023-01-25T21:22:36.914Z,19.20
2023-01-25T21:25:35.944Z,18.30
2023-01-25T21:28:36.776Z,19.40
2023-01-25T21:31:36.355Z,18.00
2023-01-25T21:34:35.379Z,23.40
2023-01-25T21:37:38.389Z,23.70
2023-01-25T21:40:38.316Z,16.00
2023-01-25T21:43:56.573Z,19.40
2023-01-25T21:50:29.989Z,24.40
2023-01-25T21:56:25.173Z,20.80
2023-01-25T21:59:23.527Z,21.60
2023-01-25T22:02:21.018Z,26.50
2023-01-25T22:05:18.709Z,21.90
2023-01-25T22:08:16.426Z,22.20
2023-01-25T22:11:13.879Z,22.70
2023-01-25T22:14:11.607Z,21.30
2023-01-25T22:17:09.040Z,18.80
2023-01-25T22:20:08.636Z,22.40
2023-01-25T22:23:06.237Z,18.10
2023-01-25T22:26:04.017Z,22.10
2023-01-25T22:29:01.717Z,16.70
2023-01-25T22:31:59.173Z,25.00
2023-01-25T22:34:56.904Z,17.90
2023-01-25T22:37:54.339Z,19.20
2023-01-25T22:40:51.981Z,27.00
2023-01-25T22:43:49.390Z,21.20
2023-01-25T22:46:47.654Z,17.50
2023-01-25T22:49:45.319Z,20.40
2023-01-25T22:52:42.740Z,21.70
2023-01-25T22:55:40.571Z,23.20
2023-01-25T22:58:37.993Z,30.20
2023-01-25T23:01:35.882Z,29.20
2023-01-25T23:04:33.347Z,29.50
2023-01-25T23:07:31.104Z,32.30
2023-01-25T23:10:28.567Z,25.00
2023-01-25T23:13:26.527Z,22.40
2023-01-25T23:16:24.349Z,19.10
2023-01-25T23:19:21.822Z,20.90
2023-01-25T23:22:19.507Z,21.30
2023-01-25T23:25:16.974Z,21.10
2023-01-25T23:28:14.694Z,19.40
2023-01-25T23:31:18.634Z,19.90
2023-01-25T23:34:16.530Z,16.20
2023-01-25T23:37:16.699Z,19.20
2023-01-25T23:40:14.795Z,16.70
2023-01-25T23:43:12.435Z,18.70
2023-01-25T23:46:09.953Z,18.70
2023-01-25T23:49:07.656Z,18.50
2023-01-25T23:52:05.101Z,16.50
2023-01-25T23:55:02.783Z,15.70
2023-01-25T23:58:00.212Z,12.90
